Time;durP1;ratioP1;P1;durP2;ratioP2;P2;SDS_P1;SDS_P2;PMS_P1;PMS_P2;Temp;Humidity;BMP_temperature;BMP_pressure;BME280_temperature;BME280_humidity;BME280_pressure;Samples;Min_cycle;Max_cycle;Signal;HPM_P1;HPM_P2
2021/07/15 00:01:51;;;;;;;18.52;16.52;;;;;;;27.23;57.56;100681.44;6183571;23;20039;-81
2021/07/15 00:04:16;;;;;;;18.85;17.13;;;;;;;27.22;57.63;100672.31;6183419;23;20004;-81
2021/07/15 00:06:42;;;;;;;18.27;16.67;;;;;;;27.14;57.76;100677.34;6183979;23;20021;-81
2021/07/15 00:09:09;;;;;;;19.08;16.70;;;;;;;27.16;57.46;100676.06;6183623;23;20363;-81
2021/07/15 00:11:38;;;;;;;18.83;16.92;;;;;;;27.18;57.02;100665.63;6183508;23;20037;-81
2021/07/15 00:14:03;;;;;;;17.90;16.30;;;;;;;27.13;57.34;100667.41;6186076;23;20721;-81
2021/07/15 00:16:29;;;;;;;20.73;17.48;;;;;;;27.05;57.42;100674.97;6185723;23;20012;-81
2021/07/15 00:18:54;;;;;;;19.05;17.33;;;;;;;27.12;57.44;100668.47;6158804;23;20038;-81
2021/07/15 00:21:22;;;;;;;18.90;17.25;;;;;;;27.10;57.46;100659.63;6185441;23;20005;-81
2021/07/15 00:23:48;;;;;;;19.08;17.08;;;;;;;27.05;57.62;100658.41;6185578;23;20039;-81
2021/07/15 00:26:16;;;;;;;18.85;17.10;;;;;;;27.08;57.65;100667.31;6185410;23;20004;-81
2021/07/15 00:28:42;;;;;;;19.15;17.35;;;;;;;27.06;57.74;100659.28;6186132;23;20012;-81
2021/07/15 00:31:08;;;;;;;19.15;16.95;;;;;;;27.04;58.17;100664.19;6158670;23;20008;-81
2021/07/15 00:33:34;;;;;;;19.77;17.75;;;;;;;27.02;58.35;100656.16;6185661;23;20009;-81
2021/07/15 00:36:00;;;;;;;20.52;18.50;;;;;;;26.86;59.30;100658.88;6185502;23;20031;-81
2021/07/15 00:38:27;;;;;;;19.92;17.98;;;;;;;26.87;59.49;100655.84;6185052;23;20088;-81
2021/07/15 00:40:52;;;;;;;19.73;18.02;;;;;;;26.88;59.70;100653.97;6185552;23;20009;-81
2021/07/15 00:43:19;;;;;;;19.15;17.35;;;;;;;26.96;59.41;100670.09;6185908;23;20072;-81
2021/07/15 00:45:44;;;;;;;20.65;18.67;;;;;;;27.01;59.60;100679.34;6186038;23;20009;-81
2021/07/15 00:48:10;;;;;;;21.13;18.90;;;;;;;26.97;59.79;100686.44;6185160;23;20331;-81
2021/07/15 00:50:36;;;;;;;20.52;18.58;;;;;;;26.92;59.65;100683.56;6185264;23;20011;-81
2021/07/15 00:53:03;;;;;;;19.48;16.77;;;;;;;26.94;59.57;100684.16;6185749;23;20008;-81
2021/07/15 00:55:41;;;;;;;18.23;16.60;;;;;;;26.95;59.83;100685.84;6185248;23;20005;-81
2021/07/15 00:58:12;;;;;;;18.52;16.92;;;;;;;26.99;59.47;100691.69;6158800;23;20661;-81
2021/07/15 01:00:39;;;;;;;19.10;17.42;;;;;;;26.95;59.18;100691.34;6185609;23;20005;-81
2021/07/15 01:03:06;;;;;;;17.65;15.90;;;;;;;26.96;58.84;100695.78;6185067;23;20342;-81
2021/07/15 01:05:44;;;;;;;17.83;16.33;;;;;;;26.98;58.42;100698.31;6157912;23;20095;-81
2021/07/15 01:08:11;;;;;;;19.23;17.15;;;;;;;26.96;58.22;100693.03;6185311;23;20012;-81
2021/07/15 01:10:55;;;;;;;17.02;15.52;;;;;;;26.94;57.85;100686.09;6185154;23;20453;-81
2021/07/15 01:13:50;;;;;;;17.63;15.75;;;;;;;26.85;58.04;100690.31;6158540;23;20013;-81
2021/07/15 01:16:21;;;;;;;18.95;17.08;;;;;;;26.75;58.28;100699.22;6186016;23;20741;-81
2021/07/15 01:18:58;;;;;;;18.20;16.40;;;;;;;26.71;58.20;100695.28;6185449;23;20009;-81
2021/07/15 01:21:45;;;;;;;18.33;16.83;;;;;;;26.59;58.31;100690.59;6185691;23;20008;-81
2021/07/15 01:24:45;;;;;;;18.33;16.63;;;;;;;26.48;58.41;100687.88;6185207;23;20060;-81
2021/07/15 01:27:28;;;;;;;18.50;16.70;;;;;;;26.53;59.15;100691.56;6185010;23;20009;-81
2021/07/15 01:30:14;;;;;;;19.77;18.08;;;;;;;26.46;59.72;100701.88;6184659;23;20012;-81
2021/07/15 01:32:49;;;;;;;19.70;17.63;;;;;;;26.55;60.33;100702.38;6158188;23;20342;-81
2021/07/15 01:35:17;;;;;;;19.33;17.52;;;;;;;26.53;60.81;100704.53;6184994;23;20385;-81
2021/07/15 01:37:50;;;;;;;24.75;22.02;;;;;;;26.47;63.23;100695.28;6157723;23;20090;-81
2021/07/15 01:40:22;;;;;;;24.23;21.70;;;;;;;26.27;64.14;100687.41;6184607;23;20047;-81
2021/07/15 01:42:58;;;;;;;26.90;23.67;;;;;;;26.11;64.18;100679.84;6184995;23;20009;-81
2021/07/15 01:45:24;;;;;;;26.75;24.00;;;;;;;25.97;65.88;100675.66;6184323;23;20777;-81
2021/07/15 01:47:51;;;;;;;25.20;23.00;;;;;;;25.78;64.20;100669.41;6184037;23;20481;-81
2021/07/15 01:50:16;;;;;;;25.52;22.88;;;;;;;25.88;64.61;100680.69;6184067;23;20005;-81
2021/07/15 01:52:42;;;;;;;25.73;23.13;;;;;;;25.50;65.04;100670.91;6184472;23;20009;-81
2021/07/15 01:55:08;;;;;;;25.27;22.67;;;;;;;25.52;66.40;100671.50;6184572;23;20430;-81
2021/07/15 01:57:34;;;;;;;26.08;23.38;;;;;;;25.53;66.24;100680.59;6184352;23;20051;-81
2021/07/15 02:00:01;;;;;;;24.17;21.88;;;;;;;25.56;65.26;100683.72;6184202;23;20013;-80
2021/07/15 02:02:28;;;;;;;24.90;22.45;;;;;;;25.71;65.10;100693.44;6184216;23;20056;-81
2021/07/15 02:04:55;;;;;;;27.17;24.50;;;;;;;25.88;65.89;100705.47;6183849;23;20454;-81
2021/07/15 02:07:24;;;;;;;26.65;24.25;;;;;;;25.89;64.10;100693.38;6184108;23;20415;-81
2021/07/15 02:09:50;;;;;;;26.65;24.10;;;;;;;25.94;63.93;100701.78;6184489;23;20009;-81
2021/07/15 02:12:20;;;;;;;28.77;26.05;;;;;;;25.82;64.15;100699.00;6184003;23;20454;-81
2021/07/15 02:14:50;;;;;;;27.52;25.00;;;;;;;25.76;66.03;100699.09;6184389;23;20389;-81
2021/07/15 02:17:16;;;;;;;29.27;26.40;;;;;;;25.87;64.07;100692.78;6184343;23;20024;-81
2021/07/15 02:19:43;;;;;;;29.02;26.35;;;;;;;25.90;64.36;100686.81;6157243;23;20414;-81
2021/07/15 02:22:08;;;;;;;28.90;26.00;;;;;;;25.92;63.89;100672.78;6184742;23;20028;-81
2021/07/15 02:24:35;;;;;;;28.42;25.92;;;;;;;25.92;64.20;100681.88;6156791;23;20100;-81
2021/07/15 02:27:04;;;;;;;29.63;26.65;;;;;;;25.97;63.97;100686.69;6183984;23;20012;-81
2021/07/15 02:29:30;;;;;;;29.98;27.17;;;;;;;25.99;63.76;100685.38;6184096;23;20032;-81
2021/07/15 02:31:59;;;;;;;28.52;25.88;;;;;;;25.98;64.13;100683.69;6184258;23;20009;-81
2021/07/15 02:34:39;;;;;;;27.73;24.98;;;;;;;26.00;64.44;100672.44;6183581;23;20095;-81
2021/07/15 02:37:05;;;;;;;27.38;24.52;;;;;;;25.99;63.74;100649.56;6184078;23;20005;-81
2021/07/15 02:39:31;;;;;;;26.45;23.98;;;;;;;25.96;63.49;100651.91;6183900;23;20009;-81
2021/07/15 02:41:57;;;;;;;27.90;24.98;;;;;;;25.90;63.41;100656.50;6183726;23;20445;-81
2021/07/15 02:44:25;;;;;;;24.80;22.38;;;;;;;25.94;63.32;100652.19;6183901;23;20035;-81
2021/07/15 02:46:50;;;;;;;26.80;24.05;;;;;;;25.87;63.28;100649.53;6184003;23;20012;-81
2021/07/15 02:49:15;;;;;;;23.98;21.95;;;;;;;25.82;62.83;100651.34;6183248;23;20370;-81
2021/07/15 02:51:41;;;;;;;25.63;22.92;;;;;;;25.88;63.27;100648.47;6183317;23;20083;-80
2021/07/15 02:54:06;;;;;;;27.40;24.70;;;;;;;25.87;63.16;100655.06;6183661;23;20358;-81
2021/07/15 02:56:46;;;;;;;27.02;24.33;;;;;;;25.81;63.04;100652.38;6183053;23;20019;-80
2021/07/15 02:59:32;;;;;;;27.95;25.38;;;;;;;25.85;63.18;100659.94;6183035;23;20012;-81
2021/07/15 03:02:06;;;;;;;27.02;24.10;;;;;;;25.88;63.09;100665.00;6155903;23;20393;-81
2021/07/15 03:04:45;;;;;;;27.75;23.95;;;;;;;25.88;63.21;100664.16;6156189;23;20083;-81
2021/07/15 03:07:14;;;;;;;23.73;21.58;;;;;;;25.92;62.84;100657.06;6183094;23;20036;-81
2021/07/15 03:09:41;;;;;;;22.70;20.70;;;;;;;25.89;63.38;100668.56;6156853;23;20008;-81
2021/07/15 03:12:17;;;;;;;22.10;19.88;;;;;;;25.89;63.48;100660.31;6183817;23;20016;-81
2021/07/15 03:14:46;;;;;;;20.15;18.25;;;;;;;25.87;63.59;100655.06;6182725;23;20438;-81
2021/07/15 03:17:22;;;;;;;20.33;18.63;;;;;;;25.82;62.79;100659.59;6183006;23;20004;-81
2021/07/15 03:19:51;;;;;;;20.05;17.88;;;;;;;25.84;62.93;100655.53;6156360;23;20047;-80
2021/07/15 03:22:17;;;;;;;24.38;19.08;;;;;;;25.85;62.48;100661.88;6183030;23;20702;-81
2021/07/15 03:24:57;;;;;;;20.33;18.27;;;;;;;25.83;63.06;100656.59;6183223;23;20016;-81
2021/07/15 03:27:25;;;;;;;20.23;18.15;;;;;;;25.76;63.16;100661.34;6154958;23;20441;-80
2021/07/15 03:29:54;;;;;;;20.15;18.25;;;;;;;25.71;63.62;100657.63;6182444;23;20385;-81
2021/07/15 03:32:20;;;;;;;20.35;18.17;;;;;;;25.77;63.32;100660.25;6182263;23;20008;-80
2021/07/15 03:34:47;;;;;;;20.05;18.35;;;;;;;25.79;63.18;100671.06;6183136;23;20005;-81
2021/07/15 03:37:16;;;;;;;22.30;19.90;;;;;;;25.76;63.65;100660.53;6182808;23;20008;-81
2021/07/15 03:39:45;;;;;;;22.85;18.17;;;;;;;25.75;63.32;100672.63;6182787;23;20009;-80
2021/07/15 03:42:10;;;;;;;19.63;17.67;;;;;;;25.77;63.65;100668.53;6182591;23;20004;-80
2021/07/15 03:44:38;;;;;;;21.88;19.63;;;;;;;25.78;63.58;100680.41;6182990;23;20754;-81
2021/07/15 03:47:04;;;;;;;20.08;18.05;;;;;;;25.76;63.94;100688.06;6182603;23;20005;-81
2021/07/15 03:49:30;;;;;;;18.92;17.10;;;;;;;25.79;63.56;100695.84;6155870;23;20009;-81
2021/07/15 03:51:56;;;;;;;19.20;17.50;;;;;;;25.80;63.62;100700.28;6182827;23;20024;-80
2021/07/15 03:54:23;;;;;;;19.60;17.58;;;;;;;25.88;63.22;100705.47;6182841;23;20035;-80
2021/07/15 03:56:50;;;;;;;18.08;16.30;;;;;;;25.95;63.26;100703.44;6182290;23;20004;-80
2021/07/15 03:59:17;;;;;;;20.10;16.75;;;;;;;25.99;63.14;100704.66;6156572;23;20489;-80
2021/07/15 04:01:43;;;;;;;19.20;17.20;;;;;;;26.03;62.95;100707.78;6156483;23;20434;-81
2021/07/15 04:04:11;;;;;;;19.10;16.98;;;;;;;26.07;62.58;100718.06;6182918;23;20009;-81
2021/07/15 04:06:38;;;;;;;19.63;16.92;;;;;;;25.99;62.45;100728.59;6182893;23;20049;-80
2021/07/15 04:09:07;;;;;;;16.77;15.27;;;;;;;26.11;62.55;100727.56;6175806;23;20005;-81
2021/07/15 04:11:33;;;;;;;17.65;15.75;;;;;;;26.16;62.06;100735.09;6178877;23;20009;-80
2021/07/15 04:14:01;;;;;;;18.80;16.85;;;;;;;26.16;61.85;100729.59;6179268;23;20088;-81
2021/07/15 04:16:45;;;;;;;19.92;15.70;;;;;;;26.14;62.17;100734.47;6180317;23;20036;-81
2021/07/15 04:19:12;;;;;;;14.77;13.63;;;;;;;26.21;61.80;100740.75;6179407;23;20513;-81
2021/07/15 04:21:39;;;;;;;18.13;14.77;;;;;;;26.30;62.12;100746.75;6149549;23;20005;-81
2021/07/15 04:24:06;;;;;;;17.90;14.77;;;;;;;26.33;61.60;100751.78;6177147;23;20019;-81
2021/07/15 04:26:32;;;;;;;15.15;13.63;;;;;;;26.35;61.33;100752.34;6152568;23;20020;-81
2021/07/15 04:28:59;;;;;;;16.63;14.25;;;;;;;26.31;61.62;100751.16;6179697;23;20009;-81
2021/07/15 04:31:47;;;;;;;16.08;14.55;;;;;;;26.30;61.53;100746.75;6179399;23;20015;-81
2021/07/15 04:34:13;;;;;;;17.02;15.48;;;;;;;26.18;61.71;100746.72;6124367;23;20331;-81
2021/07/15 04:36:40;;;;;;;16.08;14.57;;;;;;;26.05;61.69;100750.56;6179508;23;20452;-81
2021/07/15 04:39:06;;;;;;;16.17;14.63;;;;;;;26.09;61.85;100749.00;6179615;23;20036;-81
2021/07/15 04:41:31;;;;;;;16.30;14.13;;;;;;;26.06;62.02;100756.91;6179218;23;20005;-81
2021/07/15 04:43:58;;;;;;;16.80;13.95;;;;;;;26.07;62.03;100758.56;6179401;23;20009;-81
2021/07/15 04:46:25;;;;;;;15.38;13.98;;;;;;;26.08;61.99;100763.00;6180169;23;20093;-81
2021/07/15 04:48:50;;;;;;;16.42;13.93;;;;;;;26.10;62.06;100761.69;6180074;23;20024;-81
2021/07/15 04:51:17;;;;;;;16.90;13.85;;;;;;;26.15;61.87;100772.03;6153378;23;20005;-81
2021/07/15 04:53:45;;;;;;;16.40;13.70;;;;;;;26.14;62.10;100770.31;6152919;23;20008;-81
2021/07/15 04:56:11;;;;;;;15.63;13.35;;;;;;;26.15;62.38;100765.66;6179948;23;20009;-82
2021/07/15 04:58:37;;;;;;;15.50;14.00;;;;;;;26.16;62.45;100776.44;6181238;23;20005;-81
2021/07/15 05:01:03;;;;;;;16.67;13.10;;;;;;;26.18;63.95;100770.72;6180784;23;20012;-81
2021/07/15 05:03:31;;;;;;;17.13;15.40;;;;;;;26.10;64.71;100772.72;6182203;23;20084;-81
2021/07/15 05:06:00;;;;;;;17.00;15.15;;;;;;;26.15;64.04;100772.03;6154859;23;20033;-81
2021/07/15 05:08:26;;;;;;;17.60;14.18;;;;;;;26.04;63.76;100770.91;6181406;23;20013;-81
2021/07/15 05:10:51;;;;;;;14.77;13.20;;;;;;;26.32;63.69;100764.72;6180778;23;20012;-80
2021/07/15 05:13:17;;;;;;;15.10;11.88;;;;;;;26.40;62.95;100766.28;6181293;23;20001;-81
2021/07/15 05:15:42;;;;;;;13.93;11.98;;;;;;;26.36;62.76;100765.09;6181139;23;20004;-81
2021/07/15 05:18:08;;;;;;;12.63;11.45;;;;;;;26.41;62.13;100765.19;6180717;23;20071;-81
2021/07/15 05:20:33;;;;;;;12.75;10.95;;;;;;;26.44;61.67;100774.91;6153899;23;20059;-82
2021/07/15 05:22:58;;;;;;;11.95;10.75;;;;;;;26.48;62.25;100773.38;6181527;23;20001;-81
2021/07/15 05:25:23;;;;;;;10.85;9.85;;;;;;;26.49;61.57;100770.38;6180393;23;20024;-82
2021/07/15 05:27:49;;;;;;;13.05;9.18;;;;;;;26.51;61.26;100772.91;6180342;23;20702;-81
2021/07/15 05:30:15;;;;;;;11.18;9.60;;;;;;;26.47;61.61;100772.50;6153515;23;20013;-82
2021/07/15 05:32:40;;;;;;;11.25;10.15;;;;;;;26.47;61.40;100772.50;6179793;23;20009;-81
2021/07/15 05:35:06;;;;;;;12.63;11.32;;;;;;;26.50;61.90;100782.25;6180000;23;20005;-81
2021/07/15 05:37:34;;;;;;;15.77;11.43;;;;;;;26.52;61.62;100783.69;6181443;23;20009;-82
2021/07/15 05:39:59;;;;;;;13.85;11.90;;;;;;;26.67;61.80;100793.41;6179965;23;20013;-81
2021/07/15 05:42:24;;;;;;;18.25;11.60;;;;;;;26.69;61.24;100785.72;6180209;23;20102;-82
2021/07/15 05:44:51;;;;;;;13.73;12.32;;;;;;;26.59;60.72;100791.84;6180078;23;20506;-82
2021/07/15 05:47:16;;;;;;;14.45;12.32;;;;;;;26.25;61.94;100790.72;6179579;23;20043;-82
2021/07/15 05:49:41;;;;;;;14.68;12.55;;;;;;;26.35;63.01;100790.97;6152594;23;20188;-81
2021/07/15 05:52:11;;;;;;;17.13;12.85;;;;;;;26.58;61.59;100784.66;6180387;23;20104;-81
2021/07/15 05:54:37;;;;;;;14.53;13.10;;;;;;;26.60;62.13;100788.03;6180786;23;20005;-81
2021/07/15 05:57:04;;;;;;;14.13;12.70;;;;;;;26.66;61.95;100786.19;6178671;23;20338;-82
2021/07/15 05:59:29;;;;;;;15.00;12.68;;;;;;;26.59;61.37;100791.84;6152433;23;20012;-81
2021/07/15 06:01:54;;;;;;;13.75;12.35;;;;;;;26.53;61.00;100787.28;6179416;23;20005;-81
2021/07/15 06:04:20;;;;;;;19.20;13.35;;;;;;;26.53;61.28;100788.13;6178952;23;20044;-82
2021/07/15 06:06:45;;;;;;;16.15;12.05;;;;;;;26.59;61.76;100803.69;6179935;23;20048;-81
2021/07/15 06:09:10;;;;;;;14.60;12.55;;;;;;;26.62;61.69;100804.31;6179350;23;20012;-82
2021/07/15 06:11:36;;;;;;;14.85;12.93;;;;;;;26.59;61.62;100806.47;6180958;23;20025;-82
2021/07/15 06:14:02;;;;;;;16.40;12.57;;;;;;;26.49;61.92;100814.50;6152945;23;20005;-82
2021/07/15 06:16:27;;;;;;;14.23;12.00;;;;;;;26.56;61.35;100809.69;6180302;23;20005;-82
2021/07/15 06:18:53;;;;;;;13.15;11.80;;;;;;;26.67;61.04;100805.28;6182865;23;20009;-82
2021/07/15 06:21:18;;;;;;;12.23;11.10;;;;;;;26.76;60.94;100805.75;6179879;23;20011;-82
2021/07/15 06:23:43;;;;;;;16.13;11.43;;;;;;;26.80;59.99;100805.00;6183204;23;20036;-82
2021/07/15 06:26:10;;;;;;;14.40;11.63;;;;;;;26.84;60.08;100799.84;6154409;23;20399;-81
2021/07/15 06:28:35;;;;;;;15.38;11.30;;;;;;;26.85;59.88;100811.75;6183766;23;20004;-81
2021/07/15 06:31:01;;;;;;;13.48;11.40;;;;;;;26.88;60.08;100816.78;6151898;23;20016;-81
2021/07/15 06:33:26;;;;;;;12.48;10.85;;;;;;;26.99;59.06;100816.75;6179011;23;20048;-82
2021/07/15 06:35:52;;;;;;;12.75;11.30;;;;;;;27.00;58.77;100817.59;6152421;23;20009;-81
2021/07/15 06:38:18;;;;;;;14.38;11.05;;;;;;;27.05;58.21;100824.06;6180005;23;20011;-82
2021/07/15 06:40:45;;;;;;;12.75;10.75;;;;;;;27.07;58.38;100829.34;6180407;23;20009;-82
2021/07/15 06:43:10;;;;;;;10.40;9.52;;;;;;;27.30;58.50;100836.75;6182095;23;20385;-81
2021/07/15 06:45:36;;;;;;;11.82;10.63;;;;;;;27.17;57.60;100828.75;6180817;23;20005;-81
2021/07/15 06:48:01;;;;;;;10.80;9.85;;;;;;;27.15;57.99;100822.63;6180337;23;20047;-82
2021/07/15 06:50:27;;;;;;;11.43;10.43;;;;;;;27.26;58.38;100825.34;6179483;23;20080;-81
2021/07/15 06:52:52;;;;;;;11.68;10.32;;;;;;;27.28;58.38;100830.66;6179112;23;20486;-82
2021/07/15 06:55:17;;;;;;;16.88;11.88;;;;;;;27.21;58.71;100840.97;6178850;23;20009;-82
2021/07/15 06:57:44;;;;;;;14.00;12.10;;;;;;;27.12;58.71;100836.88;6179327;23;20009;-82
2021/07/15 07:00:14;;;;;;;12.30;11.15;;;;;;;27.00;58.15;100840.53;6180575;23;20009;-81
2021/07/15 07:02:41;;;;;;;12.02;11.07;;;;;;;26.73;59.01;100847.63;6179414;23;20008;-82
2021/07/15 07:05:07;;;;;;;11.25;10.15;;;;;;;26.83;58.98;100847.00;6178799;23;20020;-81
2021/07/15 07:07:33;;;;;;;10.73;9.68;;;;;;;26.93;58.46;100845.31;6151710;23;20013;-81
2021/07/15 07:09:58;;;;;;;11.70;10.60;;;;;;;27.15;58.04;100853.84;6178827;23;20059;-81
2021/07/15 07:12:23;;;;;;;14.35;10.43;;;;;;;27.24;57.21;100857.06;6179968;23;20084;-82
2021/07/15 07:14:48;;;;;;;10.73;9.82;;;;;;;27.30;56.73;100853.31;6154566;23;20005;-81
2021/07/15 07:17:14;;;;;;;11.77;10.07;;;;;;;27.41;56.01;100857.97;6152935;23;20083;-82
2021/07/15 07:19:39;;;;;;;10.63;9.52;;;;;;;27.54;55.48;100858.78;6178420;23;20108;-81
2021/07/15 07:22:05;;;;;;;10.60;9.60;;;;;;;27.66;56.10;100856.81;6178934;23;20001;-82
2021/07/15 07:24:30;;;;;;;10.30;9.30;;;;;;;27.80;54.31;100861.00;6179041;23;20009;-82
2021/07/15 07:26:55;;;;;;;14.57;9.07;;;;;;;27.65;54.78;100863.44;6178886;23;20012;-81
2021/07/15 07:29:21;;;;;;;11.60;9.23;;;;;;;27.76;54.53;100859.75;6178688;23;20345;-82
2021/07/15 07:31:46;;;;;;;9.60;8.60;;;;;;;27.59;54.29;100867.19;6179851;23;20378;-82
2021/07/15 07:34:11;;;;;;;10.32;9.40;;;;;;;27.32;54.52;100861.38;6179326;23;20665;-81
2021/07/15 07:36:37;;;;;;;10.68;9.00;;;;;;;27.13;55.49;100861.50;6178744;23;20392;-82
2021/07/15 07:39:03;;;;;;;10.32;9.32;;;;;;;27.09;55.64;100862.22;6178200;23;20067;-82
2021/07/15 07:41:29;;;;;;;10.98;9.98;;;;;;;27.04;56.09;100866.53;6178113;23;20089;-81
2021/07/15 07:43:54;;;;;;;11.27;10.15;;;;;;;27.08;56.25;100858.63;6178435;23;20025;-82
2021/07/15 07:46:19;;;;;;;10.40;9.40;;;;;;;27.22;55.39;100870.28;6178556;23;20072;-81
2021/07/15 07:48:45;;;;;;;12.07;9.38;;;;;;;27.36;55.67;100870.84;6179735;23;20009;-81
2021/07/15 07:51:11;;;;;;;12.93;10.45;;;;;;;27.17;55.66;100870.16;6179085;23;20035;-82
2021/07/15 07:53:36;;;;;;;11.77;10.68;;;;;;;27.12;55.59;100868.13;6178344;23;20005;-81
2021/07/15 07:56:01;;;;;;;11.45;9.45;;;;;;;27.25;55.70;100872.56;6178483;23;20004;-81
2021/07/15 07:58:27;;;;;;;11.07;9.43;;;;;;;27.21;56.17;100865.81;6151448;23;20572;-82
2021/07/15 08:00:52;;;;;;;11.23;10.27;;;;;;;27.15;55.99;100864.03;6179001;23;20036;-81
2021/07/15 08:03:18;;;;;;;11.98;10.65;;;;;;;26.92;56.80;100864.88;6179550;23;20489;-81
2021/07/15 08:05:47;;;;;;;12.45;10.48;;;;;;;27.11;55.69;100869.19;6178603;23;20028;-81
2021/07/15 08:08:13;;;;;;;14.23;10.32;;;;;;;27.17;55.25;100865.47;6178052;23;20005;-81
2021/07/15 08:10:39;;;;;;;16.38;10.68;;;;;;;27.15;55.00;100867.66;6177932;23;20005;-82
2021/07/15 08:13:04;;;;;;;14.15;10.13;;;;;;;27.05;55.00;100868.22;6178150;23;20012;-81
2021/07/15 08:15:30;;;;;;;10.57;9.55;;;;;;;27.18;55.56;100867.19;6177665;23;20084;-82
2021/07/15 08:17:55;;;;;;;11.20;10.10;;;;;;;27.29;55.44;100876.50;6179608;23;20009;-81
2021/07/15 08:20:21;;;;;;;13.07;10.05;;;;;;;27.02;55.40;100868.69;6178853;23;20083;-81
2021/07/15 08:22:46;;;;;;;14.35;9.65;;;;;;;27.09;55.94;100874.13;6150815;23;20001;-81
2021/07/15 08:25:14;;;;;;;12.77;10.85;;;;;;;27.00;56.08;100868.13;6178278;23;20095;-82
2021/07/15 08:27:40;;;;;;;12.35;10.45;;;;;;;27.08;56.17;100871.59;6176742;23;20625;-81
2021/07/15 08:30:07;;;;;;;11.38;10.27;;;;;;;27.17;55.59;100872.94;6178161;23;20009;-81
2021/07/15 08:32:33;;;;;;;19.38;11.73;;;;;;;27.10;56.09;100866.66;6153206;23;20060;-81
2021/07/15 08:34:58;;;;;;;13.20;9.70;;;;;;;27.15;56.51;100875.06;6180822;23;20001;-81
2021/07/15 08:37:23;;;;;;;10.20;9.32;;;;;;;27.08;55.29;100877.09;6153212;23;20323;-81
2021/07/15 08:39:49;;;;;;;12.82;9.85;;;;;;;27.10;55.71;100883.25;6179997;23;20084;-81
2021/07/15 08:42:17;;;;;;;11.95;10.27;;;;;;;27.12;54.47;100879.16;6180535;23;20354;-81
2021/07/15 08:44:43;;;;;;;10.40;9.30;;;;;;;27.28;54.70;100885.88;6180430;23;20333;-81
2021/07/15 08:47:09;;;;;;;14.85;10.75;;;;;;;27.23;55.09;100885.75;6180733;23;20012;-81
2021/07/15 08:49:37;;;;;;;10.52;9.52;;;;;;;27.27;55.92;100879.53;6182662;23;20009;-81
2021/07/15 08:52:02;;;;;;;11.48;10.32;;;;;;;27.23;54.92;100877.47;6181065;23;20635;-81
2021/07/15 08:54:36;;;;;;;10.50;9.43;;;;;;;27.23;55.13;100875.56;6152749;23;20095;-81
2021/07/15 08:57:02;;;;;;;11.10;9.98;;;;;;;27.32;54.86;100887.06;6153247;23;20509;-82
2021/07/15 08:59:28;;;;;;;10.20;9.20;;;;;;;27.40;54.99;100877.56;6179718;23;20012;-81
2021/07/15 09:01:55;;;;;;;13.25;9.38;;;;;;;27.42;54.21;100890.03;6179615;23;20005;-81
2021/07/15 09:04:22;;;;;;;10.80;9.05;;;;;;;27.47;54.33;100883.78;6180941;23;20346;-81
2021/07/15 09:06:49;;;;;;;9.65;8.63;;;;;;;27.46;52.71;100884.88;6153827;23;20035;-81
2021/07/15 09:09:14;;;;;;;8.30;7.60;;;;;;;27.43;52.65;100893.66;6179523;23;20008;-81
2021/07/15 09:11:40;;;;;;;9.15;8.30;;;;;;;27.43;52.98;100891.72;6179734;23;20377;-81
2021/07/15 09:14:13;;;;;;;9.15;8.25;;;;;;;27.41;52.55;100882.00;6152718;23;20697;-81
2021/07/15 09:16:45;;;;;;;8.82;7.97;;;;;;;27.38;51.03;100888.84;6179800;23;20012;-81
2021/07/15 09:19:13;;;;;;;8.60;7.80;;;;;;;27.48;51.77;100900.09;6181279;23;20602;-81
2021/07/15 09:21:38;;;;;;;9.88;7.80;;;;;;;27.50;51.23;100894.34;6154168;23;20337;-81
2021/07/15 09:24:28;;;;;;;8.57;7.88;;;;;;;27.61;50.52;100890.72;6180155;23;20013;-81
2021/07/15 09:26:54;;;;;;;8.57;7.88;;;;;;;27.63;51.23;100896.81;6178315;23;20012;-81
2021/07/15 09:29:20;;;;;;;9.00;7.55;;;;;;;27.67;51.45;100902.69;6179816;23;20009;-81
2021/07/15 09:31:59;;;;;;;10.27;7.93;;;;;;;27.82;51.18;100905.78;6153223;23;20385;-81
2021/07/15 09:34:26;;;;;;;7.38;6.75;;;;;;;28.08;49.34;100900.78;6180749;23;20339;-81
2021/07/15 09:36:53;;;;;;;10.15;7.38;;;;;;;28.22;49.37;100899.34;6180011;23;20078;-81
2021/07/15 09:39:28;;;;;;;8.68;6.90;;;;;;;28.46;49.22;100899.25;6180135;23;20005;-81
2021/07/15 09:42:17;;;;;;;7.80;7.05;;;;;;;28.36;47.76;100895.19;6153021;23;20009;-81
2021/07/15 09:44:46;;;;;;;8.02;6.88;;;;;;;28.31;47.89;100897.03;6179481;23;20059;-81
2021/07/15 09:47:40;;;;;;;7.88;6.70;;;;;;;28.41;48.70;100902.78;6181601;23;20071;-81
2021/07/15 09:50:15;;;;;;;9.40;6.38;;;;;;;28.29;47.26;100894.53;6154127;23;20016;-82
2021/07/15 09:52:40;;;;;;;6.90;6.20;;;;;;;28.34;48.25;100889.06;6180675;23;20028;-81
2021/07/15 09:55:19;;;;;;;7.20;6.55;;;;;;;28.35;47.97;100893.53;6154609;23;20323;-81
2021/07/15 09:57:44;;;;;;;6.28;5.68;;;;;;;28.26;48.92;100888.66;6181328;23;20005;-82
2021/07/15 10:00:11;;;;;;;6.55;6.00;;;;;;;28.24;48.49;100888.06;6180926;23;20588;-81
2021/07/15 10:02:37;;;;;;;6.65;6.05;;;;;;;28.17;48.57;100891.81;6181476;23;20007;-82
2021/07/15 10:05:03;;;;;;;6.72;6.13;;;;;;;28.35;50.57;100896.28;6155284;23;20021;-82
2021/07/15 10:07:28;;;;;;;7.55;6.30;;;;;;;28.30;48.66;100887.91;6181068;23;20005;-81
2021/07/15 10:10:17;;;;;;;7.45;6.05;;;;;;;28.33;48.89;100892.09;6180634;23;20311;-82
2021/07/15 10:12:43;;;;;;;7.32;6.07;;;;;;;28.34;48.83;100891.81;6180056;23;20005;-81
2021/07/15 10:15:10;;;;;;;8.10;6.10;;;;;;;28.31;49.15;100892.31;6180345;23;20107;-81
2021/07/15 10:17:43;;;;;;;7.72;6.53;;;;;;;28.43;49.04;100894.22;6181268;23;20012;-81
2021/07/15 10:20:14;;;;;;;6.88;6.28;;;;;;;28.37;49.66;100901.56;6182300;23;20005;-81
2021/07/15 10:22:40;;;;;;;6.95;6.30;;;;;;;28.64;48.60;100902.59;6154936;23;20064;-81
2021/07/15 10:25:10;;;;;;;6.97;5.97;;;;;;;28.78;47.57;100905.06;6181944;23;20015;-82
2021/07/15 10:27:39;;;;;;;6.22;5.68;;;;;;;29.07;48.43;100906.63;6182406;23;20001;-81
2021/07/15 10:30:09;;;;;;;8.98;5.97;;;;;;;29.24;46.45;100895.50;6182472;23;20438;-82
2021/07/15 10:32:36;;;;;;;9.10;5.93;;;;;;;29.52;45.63;100902.78;6155788;23;20334;-81
2021/07/15 10:35:08;;;;;;;5.32;4.82;;;;;;;29.68;44.93;100900.25;6183271;23;20015;-81
2021/07/15 10:37:42;;;;;;;11.38;5.20;;;;;;;29.88;44.96;100907.97;6183919;23;20032;-81
2021/07/15 10:40:10;;;;;;;6.40;4.95;;;;;;;29.92;44.36;100906.34;6182999;23;20004;-82
2021/07/15 10:42:37;;;;;;;5.25;4.78;;;;;;;30.00;44.09;100903.94;6182267;23;20005;-81
2021/07/15 10:45:03;;;;;;;8.20;5.65;;;;;;;29.91;43.11;100905.50;6180790;23;20013;-82
2021/07/15 10:47:29;;;;;;;5.68;5.07;;;;;;;29.83;43.68;100896.81;6182224;23;20051;-81
2021/07/15 10:49:56;;;;;;;5.93;4.82;;;;;;;29.84;43.74;100901.25;6183626;23;20334;-81
2021/07/15 10:52:23;;;;;;;6.47;4.68;;;;;;;29.81;44.86;100894.28;6181840;23;20009;-82
2021/07/15 10:54:50;;;;;;;8.43;5.15;;;;;;;29.82;44.11;100895.16;6182176;23;20135;-82
2021/07/15 10:57:20;;;;;;;5.57;5.10;;;;;;;29.76;44.44;100903.41;6154808;23;20457;-82
2021/07/15 10:59:45;;;;;;;6.10;5.55;;;;;;;29.81;44.68;100899.00;6181275;23;20020;-82
2021/07/15 11:02:26;;;;;;;6.00;5.28;;;;;;;29.87;45.22;100897.97;6183301;23;20028;-81
2021/07/15 11:04:53;;;;;;;9.38;6.07;;;;;;;29.96;45.40;100896.41;6185473;23;20021;-81
2021/07/15 11:07:24;;;;;;;8.98;5.60;;;;;;;30.15;44.95;100899.63;6186489;23;20032;-81
2021/07/15 11:09:52;;;;;;;8.40;6.13;;;;;;;30.51;44.68;100900.84;6186631;23;20005;-82
2021/07/15 11:12:37;;;;;;;6.20;5.70;;;;;;;30.86;44.16;100891.97;6185700;23;20015;-81
2021/07/15 11:15:07;;;;;;;7.85;6.40;;;;;;;31.14;44.07;100901.03;6185941;23;20008;-81
2021/07/15 11:17:40;;;;;;;7.37;5.57;;;;;;;31.41;43.63;100900.13;6183891;23;20004;-80
2021/07/15 11:20:12;;;;;;;7.18;5.88;;;;;;;31.47;43.60;100901.81;6184572;23;20013;-81